KLOL/LOL METAR and TAF weather

Enter ICAO airport designator
Station Type Date Time Source
KLOL METAR 2021/05/11 22:53 UTC NOAA

KLOL 112253Z AUTO 00000KT 10SM CLR 23/M11 A3006 RMK AO2 SLP165 T02281106


Station Type Date Time Source
KLOL Decoded METAR 2021/05/11 22:53 UTC NOAA

LOVELOCK DERBY FIELD, NV, United States (KLOL) 40-04N 118-34W 1189M
May 11, 2021 - 06:53 PM EDT / 2021.05.11 2253 UTC
Wind: Calm:0
Visibility: 10 mile(s):0
Sky conditions: clear
Temperature: 73.0 F (22.8 C)
Dew Point: 12.9 F (-10.6 C)
Relative Humidity: 9%
Pressure (altimeter): 30.06 in. Hg (1017 hPa)
ob: KLOL 112253Z AUTO 00000KT 10SM CLR 23/M11 A3006 RMK AO2 SLP165 T02281106
cycle: 23

Station Type Date Time Source
KLOL TAF 2010/01/05 05:22 UTC NOAA

TAF KLOL 050522Z 0506/0606 00000KT 1/4SM FZFG VV001
FM052000 VRB03KT 3SM BR OVC002
AMD NOT SKED

Example: see airport list